sensor_id;sensor_type;location;lat;lon;timestamp;P1;durP1;ratioP1;P2;durP2;ratioP2
28519;SDS011;15732;48.534;20.382;2023-03-14T00:01:21;8.82;;;4.07;;
28519;SDS011;15732;48.534;20.382;2023-03-14T00:03:53;9.85;;;4.20;;
28519;SDS011;15732;48.534;20.382;2023-03-14T00:06:20;10.32;;;3.75;;
28519;SDS011;15732;48.534;20.382;2023-03-14T00:08:51;9.70;;;3.10;;
28519;SDS011;15732;48.534;20.382;2023-03-14T00:11:23;8.20;;;3.42;;
28519;SDS011;15732;48.534;20.382;2023-03-14T00:13:50;10.50;;;4.20;;
28519;SDS011;15732;48.534;20.382;2023-03-14T00:16:18;11.10;;;3.90;;
28519;SDS011;15732;48.534;20.382;2023-03-14T00:18:49;14.68;;;4.85;;
28519;SDS011;15732;48.534;20.382;2023-03-14T00:21:16;13.05;;;4.30;;
28519;SDS011;15732;48.534;20.382;2023-03-14T00:23:44;12.65;;;3.53;;
28519;SDS011;15732;48.534;20.382;2023-03-14T00:26:12;9.68;;;3.78;;
28519;SDS011;15732;48.534;20.382;2023-03-14T00:28:45;10.52;;;4.38;;
28519;SDS011;15732;48.534;20.382;2023-03-14T00:31:14;13.65;;;5.07;;
28519;SDS011;15732;48.534;20.382;2023-03-14T00:33:42;15.15;;;5.47;;
28519;SDS011;15732;48.534;20.382;2023-03-14T00:36:14;11.27;;;4.97;;
28519;SDS011;15732;48.534;20.382;2023-03-14T00:38:57;12.48;;;4.38;;
28519;SDS011;15732;48.534;20.382;2023-03-14T00:41:24;8.32;;;4.13;;
28519;SDS011;15732;48.534;20.382;2023-03-14T00:43:52;9.98;;;4.28;;
28519;SDS011;15732;48.534;20.382;2023-03-14T00:46:22;10.13;;;4.18;;
28519;SDS011;15732;48.534;20.382;2023-03-14T00:48:50;11.48;;;4.93;;
28519;SDS011;15732;48.534;20.382;2023-03-14T00:51:17;8.82;;;3.08;;
28519;SDS011;15732;48.534;20.382;2023-03-14T00:53:45;14.13;;;4.32;;
28519;SDS011;15732;48.534;20.382;2023-03-14T00:56:16;10.98;;;4.78;;
28519;SDS011;15732;48.534;20.382;2023-03-14T00:58:47;11.15;;;3.58;;
28519;SDS011;15732;48.534;20.382;2023-03-14T01:01:16;10.05;;;3.33;;
28519;SDS011;15732;48.534;20.382;2023-03-14T01:03:45;11.90;;;4.30;;
28519;SDS011;15732;48.534;20.382;2023-03-14T01:06:14;8.10;;;4.53;;
28519;SDS011;15732;48.534;20.382;2023-03-14T01:08:43;11.65;;;3.50;;
28519;SDS011;15732;48.534;20.382;2023-03-14T01:11:15;10.75;;;3.83;;
28519;SDS011;15732;48.534;20.382;2023-03-14T01:13:47;12.55;;;3.47;;
28519;SDS011;15732;48.534;20.382;2023-03-14T01:16:15;7.45;;;3.45;;
28519;SDS011;15732;48.534;20.382;2023-03-14T01:18:49;12.23;;;3.25;;
28519;SDS011;15732;48.534;20.382;2023-03-14T01:23:44;7.88;;;2.97;;
28519;SDS011;15732;48.534;20.382;2023-03-14T01:26:12;11.20;;;4.32;;
28519;SDS011;15732;48.534;20.382;2023-03-14T01:28:41;10.43;;;3.38;;
28519;SDS011;15732;48.534;20.382;2023-03-14T01:31:09;5.47;;;2.83;;
28519;SDS011;15732;48.534;20.382;2023-03-14T01:33:37;8.20;;;3.13;;
28519;SDS011;15732;48.534;20.382;2023-03-14T01:36:05;14.32;;;4.15;;
28519;SDS011;15732;48.534;20.382;2023-03-14T01:38:34;8.40;;;3.80;;
28519;SDS011;15732;48.534;20.382;2023-03-14T01:43:29;20.30;;;6.38;;
28519;SDS011;15732;48.534;20.382;2023-03-14T01:48:33;8.15;;;3.53;;
28519;SDS011;15732;48.534;20.382;2023-03-14T01:51:12;11.68;;;4.40;;
28519;SDS011;15732;48.534;20.382;2023-03-14T01:53:54;6.68;;;3.63;;
28519;SDS011;15732;48.534;20.382;2023-03-14T01:56:30;7.43;;;3.25;;
28519;SDS011;15732;48.534;20.382;2023-03-14T01:58:57;9.80;;;4.28;;
28519;SDS011;15732;48.534;20.382;2023-03-14T02:01:30;8.52;;;3.53;;
28519;SDS011;15732;48.534;20.382;2023-03-14T02:03:58;12.45;;;4.53;;
28519;SDS011;15732;48.534;20.382;2023-03-14T02:06:31;10.25;;;3.50;;
28519;SDS011;15732;48.534;20.382;2023-03-14T02:09:17;8.07;;;3.17;;
28519;SDS011;15732;48.534;20.382;2023-03-14T02:11:48;26.00;;;9.57;;
28519;SDS011;15732;48.534;20.382;2023-03-14T02:14:22;15.00;;;6.00;;
28519;SDS011;15732;48.534;20.382;2023-03-14T02:16:58;17.02;;;5.97;;
28519;SDS011;15732;48.534;20.382;2023-03-14T02:19:39;19.52;;;7.38;;
28519;SDS011;15732;48.534;20.382;2023-03-14T02:22:31;21.80;;;6.82;;
28519;SDS011;15732;48.534;20.382;2023-03-14T02:27:38;6.93;;;3.20;;
28519;SDS011;15732;48.534;20.382;2023-03-14T02:30:06;8.32;;;3.78;;
28519;SDS011;15732;48.534;20.382;2023-03-14T02:32:46;11.10;;;3.25;;
28519;SDS011;15732;48.534;20.382;2023-03-14T02:35:24;9.23;;;4.88;;
28519;SDS011;15732;48.534;20.382;2023-03-14T02:40:38;32.03;;;8.35;;
28519;SDS011;15732;48.534;20.382;2023-03-14T02:43:09;25.38;;;4.47;;
28519;SDS011;15732;48.534;20.382;2023-03-14T02:45:39;13.43;;;3.22;;
28519;SDS011;15732;48.534;20.382;2023-03-14T02:48:09;5.45;;;2.40;;
28519;SDS011;15732;48.534;20.382;2023-03-14T02:50:40;10.23;;;2.53;;
28519;SDS011;15732;48.534;20.382;2023-03-14T02:53:07;6.03;;;3.08;;
28519;SDS011;15732;48.534;20.382;2023-03-14T02:55:35;6.85;;;2.22;;
28519;SDS011;15732;48.534;20.382;2023-03-14T02:58:02;8.07;;;3.42;;
28519;SDS011;15732;48.534;20.382;2023-03-14T03:00:29;7.43;;;2.78;;
28519;SDS011;15732;48.534;20.382;2023-03-14T03:03:01;7.63;;;2.78;;
28519;SDS011;15732;48.534;20.382;2023-03-14T03:05:32;6.13;;;2.70;;
28519;SDS011;15732;48.534;20.382;2023-03-14T03:07:59;4.88;;;2.05;;
28519;SDS011;15732;48.534;20.382;2023-03-14T03:10:26;7.10;;;2.88;;
28519;SDS011;15732;48.534;20.382;2023-03-14T03:12:58;7.55;;;3.38;;
28519;SDS011;15732;48.534;20.382;2023-03-14T03:15:26;8.90;;;2.78;;
28519;SDS011;15732;48.534;20.382;2023-03-14T03:17:53;6.03;;;2.60;;
28519;SDS011;15732;48.534;20.382;2023-03-14T03:20:21;6.15;;;2.30;;
28519;SDS011;15732;48.534;20.382;2023-03-14T03:22:48;10.10;;;3.38;;
28519;SDS011;15732;48.534;20.382;2023-03-14T03:25:19;6.28;;;2.85;;
28519;SDS011;15732;48.534;20.382;2023-03-14T03:27:46;14.27;;;3.28;;
28519;SDS011;15732;48.534;20.382;2023-03-14T03:30:13;10.85;;;2.92;;
28519;SDS011;15732;48.534;20.382;2023-03-14T03:32:41;4.72;;;2.33;;
28519;SDS011;15732;48.534;20.382;2023-03-14T03:35:11;5.97;;;2.17;;
28519;SDS011;15732;48.534;20.382;2023-03-14T03:37:42;6.90;;;2.65;;
28519;SDS011;15732;48.534;20.382;2023-03-14T03:40:10;6.03;;;2.60;;
28519;SDS011;15732;48.534;20.382;2023-03-14T03:42:38;10.90;;;2.92;;
28519;SDS011;15732;48.534;20.382;2023-03-14T03:45:09;8.57;;;3.45;;
28519;SDS011;15732;48.534;20.382;2023-03-14T03:47:36;9.50;;;3.33;;
28519;SDS011;15732;48.534;20.382;2023-03-14T03:50:04;10.20;;;3.30;;
28519;SDS011;15732;48.534;20.382;2023-03-14T03:52:33;6.45;;;2.65;;
28519;SDS011;15732;48.534;20.382;2023-03-14T03:55:00;5.47;;;2.40;;
28519;SDS011;15732;48.534;20.382;2023-03-14T03:57:28;5.72;;;2.45;;
28519;SDS011;15732;48.534;20.382;2023-03-14T03:59:55;5.93;;;2.30;;
28519;SDS011;15732;48.534;20.382;2023-03-14T04:02:22;4.10;;;2.35;;
28519;SDS011;15732;48.534;20.382;2023-03-14T04:04:49;5.00;;;2.40;;
28519;SDS011;15732;48.534;20.382;2023-03-14T04:07:20;9.95;;;3.10;;
28519;SDS011;15732;48.534;20.382;2023-03-14T04:09:47;8.23;;;2.90;;
28519;SDS011;15732;48.534;20.382;2023-03-14T04:12:14;7.97;;;1.98;;
28519;SDS011;15732;48.534;20.382;2023-03-14T04:14:46;12.55;;;2.90;;
28519;SDS011;15732;48.534;20.382;2023-03-14T04:17:13;5.07;;;2.45;;
28519;SDS011;15732;48.534;20.382;2023-03-14T04:19:41;3.97;;;2.25;;
28519;SDS011;15732;48.534;20.382;2023-03-14T04:22:08;6.65;;;3.13;;
28519;SDS011;15732;48.534;20.382;2023-03-14T04:24:35;5.20;;;2.03;;
28519;SDS011;15732;48.534;20.382;2023-03-14T04:27:03;5.82;;;2.58;;
28519;SDS011;15732;48.534;20.382;2023-03-14T04:29:30;5.25;;;2.50;;
28519;SDS011;15732;48.534;20.382;2023-03-14T04:31:58;4.18;;;1.83;;
28519;SDS011;15732;48.534;20.382;2023-03-14T04:34:29;6.00;;;2.60;;
28519;SDS011;15732;48.534;20.382;2023-03-14T04:36:56;4.53;;;2.30;;
28519;SDS011;15732;48.534;20.382;2023-03-14T04:39:24;4.57;;;2.03;;
28519;SDS011;15732;48.534;20.382;2023-03-14T04:41:51;5.80;;;2.55;;
28519;SDS011;15732;48.534;20.382;2023-03-14T04:44:18;7.13;;;3.00;;
28519;SDS011;15732;48.534;20.382;2023-03-14T04:46:46;6.40;;;2.78;;
28519;SDS011;15732;48.534;20.382;2023-03-14T04:49:13;6.18;;;2.30;;
28519;SDS011;15732;48.534;20.382;2023-03-14T04:51:41;8.10;;;3.40;;
28519;SDS011;15732;48.534;20.382;2023-03-14T04:54:08;5.97;;;2.53;;
28519;SDS011;15732;48.534;20.382;2023-03-14T04:56:35;5.35;;;2.35;;
28519;SDS011;15732;48.534;20.382;2023-03-14T04:59:03;10.73;;;2.97;;
28519;SDS011;15732;48.534;20.382;2023-03-14T05:01:30;4.25;;;2.13;;
28519;SDS011;15732;48.534;20.382;2023-03-14T05:03:57;6.30;;;2.25;;
28519;SDS011;15732;48.534;20.382;2023-03-14T05:06:28;10.38;;;4.80;;
28519;SDS011;15732;48.534;20.382;2023-03-14T05:08:59;11.55;;;3.53;;
28519;SDS011;15732;48.534;20.382;2023-03-14T05:11:27;6.88;;;2.58;;
28519;SDS011;15732;48.534;20.382;2023-03-14T05:13:55;9.75;;;2.53;;
28519;SDS011;15732;48.534;20.382;2023-03-14T05:16:22;6.05;;;2.45;;
28519;SDS011;15732;48.534;20.382;2023-03-14T05:18:50;5.45;;;2.80;;
28519;SDS011;15732;48.534;20.382;2023-03-14T05:21:21;10.23;;;2.97;;
28519;SDS011;15732;48.534;20.382;2023-03-14T05:23:52;5.93;;;3.08;;
28519;SDS011;15732;48.534;20.382;2023-03-14T05:26:23;11.02;;;3.25;;
28519;SDS011;15732;48.534;20.382;2023-03-14T05:28:50;16.08;;;4.03;;
28519;SDS011;15732;48.534;20.382;2023-03-14T05:31:18;7.15;;;2.65;;
28519;SDS011;15732;48.534;20.382;2023-03-14T05:33:45;11.57;;;3.20;;
28519;SDS011;15732;48.534;20.382;2023-03-14T05:36:15;8.43;;;3.15;;
28519;SDS011;15732;48.534;20.382;2023-03-14T05:38:43;8.45;;;3.08;;
28519;SDS011;15732;48.534;20.382;2023-03-14T05:41:10;4.82;;;2.90;;
28519;SDS011;15732;48.534;20.382;2023-03-14T05:43:37;6.53;;;2.97;;
28519;SDS011;15732;48.534;20.382;2023-03-14T05:46:05;10.38;;;3.25;;
28519;SDS011;15732;48.534;20.382;2023-03-14T05:48:37;5.88;;;2.42;;
28519;SDS011;15732;48.534;20.382;2023-03-14T05:51:04;6.90;;;2.85;;
28519;SDS011;15732;48.534;20.382;2023-03-14T05:53:32;3.17;;;1.60;;
28519;SDS011;15732;48.534;20.382;2023-03-14T05:56:00;5.30;;;2.03;;
28519;SDS011;15732;48.534;20.382;2023-03-14T05:58:26;2.90;;;1.73;;
28519;SDS011;15732;48.534;20.382;2023-03-14T06:00:54;4.13;;;1.75;;
28519;SDS011;15732;48.534;20.382;2023-03-14T06:03:21;5.18;;;2.42;;
28519;SDS011;15732;48.534;20.382;2023-03-14T06:05:51;6.60;;;3.03;;
28519;SDS011;15732;48.534;20.382;2023-03-14T06:08:19;5.10;;;2.10;;
28519;SDS011;15732;48.534;20.382;2023-03-14T06:10:46;4.65;;;2.30;;
28519;SDS011;15732;48.534;20.382;2023-03-14T06:13:14;7.35;;;2.13;;
28519;SDS011;15732;48.534;20.382;2023-03-14T06:15:41;4.47;;;2.25;;
28519;SDS011;15732;48.534;20.382;2023-03-14T06:18:09;7.38;;;2.88;;
28519;SDS011;15732;48.534;20.382;2023-03-14T06:20:36;3.97;;;2.00;;
28519;SDS011;15732;48.534;20.382;2023-03-14T06:23:05;4.30;;;2.13;;
28519;SDS011;15732;48.534;20.382;2023-03-14T06:25:37;6.47;;;2.13;;
28519;SDS011;15732;48.534;20.382;2023-03-14T06:28:04;4.45;;;2.20;;
28519;SDS011;15732;48.534;20.382;2023-03-14T06:30:35;4.55;;;1.83;;
28519;SDS011;15732;48.534;20.382;2023-03-14T06:33:06;3.72;;;1.70;;
28519;SDS011;15732;48.534;20.382;2023-03-14T06:35:34;6.53;;;2.58;;
28519;SDS011;15732;48.534;20.382;2023-03-14T06:38:00;4.63;;;1.90;;
28519;SDS011;15732;48.534;20.382;2023-03-14T06:40:28;4.65;;;2.15;;
28519;SDS011;15732;48.534;20.382;2023-03-14T06:42:56;4.60;;;1.40;;
28519;SDS011;15732;48.534;20.382;2023-03-14T06:45:23;5.35;;;1.92;;
28519;SDS011;15732;48.534;20.382;2023-03-14T06:47:51;6.47;;;3.00;;
28519;SDS011;15732;48.534;20.382;2023-03-14T06:50:18;3.88;;;2.08;;
28519;SDS011;15732;48.534;20.382;2023-03-14T06:52:48;4.43;;;2.10;;
28519;SDS011;15732;48.534;20.382;2023-03-14T06:55:15;5.55;;;1.67;;
28519;SDS011;15732;48.534;20.382;2023-03-14T06:57:43;7.28;;;2.40;;
28519;SDS011;15732;48.534;20.382;2023-03-14T07:00:12;6.05;;;2.47;;
28519;SDS011;15732;48.534;20.382;2023-03-14T07:07:43;14.47;;;2.50;;
28519;SDS011;15732;48.534;20.382;2023-03-14T07:10:11;6.22;;;1.95;;
28519;SDS011;15732;48.534;20.382;2023-03-14T07:12:42;7.10;;;3.22;;
28519;SDS011;15732;48.534;20.382;2023-03-14T07:15:09;5.82;;;1.70;;
28519;SDS011;15732;48.534;20.382;2023-03-14T07:17:37;4.13;;;2.25;;
28519;SDS011;15732;48.534;20.382;2023-03-14T07:20:04;8.63;;;2.20;;
28519;SDS011;15732;48.534;20.382;2023-03-14T07:22:33;7.97;;;2.00;;
28519;SDS011;15732;48.534;20.382;2023-03-14T07:25:00;6.30;;;2.03;;
28519;SDS011;15732;48.534;20.382;2023-03-14T07:27:27;4.45;;;2.05;;
28519;SDS011;15732;48.534;20.382;2023-03-14T07:29:55;6.57;;;2.10;;
28519;SDS011;15732;48.534;20.382;2023-03-14T07:32:22;7.60;;;2.88;;
28519;SDS011;15732;48.534;20.382;2023-03-14T07:34:50;9.82;;;2.00;;
28519;SDS011;15732;48.534;20.382;2023-03-14T07:37:17;5.60;;;2.63;;
28519;SDS011;15732;48.534;20.382;2023-03-14T07:39:45;7.38;;;2.65;;
28519;SDS011;15732;48.534;20.382;2023-03-14T07:42:12;6.38;;;2.90;;
28519;SDS011;15732;48.534;20.382;2023-03-14T07:44:40;5.93;;;2.10;;
28519;SDS011;15732;48.534;20.382;2023-03-14T07:47:07;10.88;;;2.72;;
28519;SDS011;15732;48.534;20.382;2023-03-14T07:49:34;6.75;;;2.63;;
28519;SDS011;15732;48.534;20.382;2023-03-14T07:52:02;8.80;;;2.70;;
28519;SDS011;15732;48.534;20.382;2023-03-14T07:54:29;9.88;;;1.90;;
28519;SDS011;15732;48.534;20.382;2023-03-14T07:56:56;5.43;;;2.35;;
28519;SDS011;15732;48.534;20.382;2023-03-14T07:59:26;5.15;;;2.20;;
28519;SDS011;15732;48.534;20.382;2023-03-14T08:01:58;5.47;;;2.75;;
28519;SDS011;15732;48.534;20.382;2023-03-14T08:04:29;5.60;;;2.15;;
28519;SDS011;15732;48.534;20.382;2023-03-14T08:06:57;9.93;;;2.20;;
28519;SDS011;15732;48.534;20.382;2023-03-14T08:09:28;5.10;;;2.97;;
28519;SDS011;15732;48.534;20.382;2023-03-14T08:11:55;5.95;;;2.20;;
28519;SDS011;15732;48.534;20.382;2023-03-14T08:14:26;8.23;;;2.40;;
28519;SDS011;15732;48.534;20.382;2023-03-14T08:16:55;4.72;;;1.85;;
28519;SDS011;15732;48.534;20.382;2023-03-14T08:19:22;7.13;;;2.22;;
28519;SDS011;15732;48.534;20.382;2023-03-14T08:21:49;6.75;;;2.53;;
28519;SDS011;15732;48.534;20.382;2023-03-14T08:24:16;5.03;;;2.17;;
28519;SDS011;15732;48.534;20.382;2023-03-14T08:26:44;5.10;;;1.95;;
28519;SDS011;15732;48.534;20.382;2023-03-14T08:29:11;6.45;;;2.33;;
28519;SDS011;15732;48.534;20.382;2023-03-14T08:31:38;7.30;;;2.67;;
28519;SDS011;15732;48.534;20.382;2023-03-14T08:34:05;7.10;;;3.03;;
28519;SDS011;15732;48.534;20.382;2023-03-14T08:36:36;10.88;;;2.33;;
28519;SDS011;15732;48.534;20.382;2023-03-14T08:39:03;9.98;;;2.13;;
28519;SDS011;15732;48.534;20.382;2023-03-14T08:41:33;8.55;;;3.30;;
28519;SDS011;15732;48.534;20.382;2023-03-14T08:44:06;12.82;;;2.60;;
28519;SDS011;15732;48.534;20.382;2023-03-14T08:46:37;10.02;;;2.60;;
28519;SDS011;15732;48.534;20.382;2023-03-14T08:49:05;5.80;;;2.70;;
28519;SDS011;15732;48.534;20.382;2023-03-14T08:51:32;6.18;;;2.15;;
28519;SDS011;15732;48.534;20.382;2023-03-14T08:54:00;5.30;;;1.90;;
28519;SDS011;15732;48.534;20.382;2023-03-14T08:56:27;7.57;;;2.17;;
28519;SDS011;15732;48.534;20.382;2023-03-14T08:58:54;6.15;;;2.05;;
28519;SDS011;15732;48.534;20.382;2023-03-14T09:01:21;7.72;;;2.72;;
28519;SDS011;15732;48.534;20.382;2023-03-14T09:03:54;5.72;;;1.83;;
28519;SDS011;15732;48.534;20.382;2023-03-14T09:06:25;6.28;;;2.55;;
28519;SDS011;15732;48.534;20.382;2023-03-14T09:08:56;8.18;;;2.38;;
28519;SDS011;15732;48.534;20.382;2023-03-14T09:11:27;7.93;;;2.80;;
28519;SDS011;15732;48.534;20.382;2023-03-14T09:13:55;4.88;;;2.42;;
28519;SDS011;15732;48.534;20.382;2023-03-14T09:16:26;6.00;;;2.28;;
28519;SDS011;15732;48.534;20.382;2023-03-14T09:18:54;4.22;;;1.65;;
28519;SDS011;15732;48.534;20.382;2023-03-14T09:21:25;7.43;;;2.08;;
28519;SDS011;15732;48.534;20.382;2023-03-14T09:23:53;7.27;;;1.87;;
28519;SDS011;15732;48.534;20.382;2023-03-14T09:26:20;5.63;;;2.30;;
28519;SDS011;15732;48.534;20.382;2023-03-14T09:28:47;3.70;;;1.80;;
28519;SDS011;15732;48.534;20.382;2023-03-14T09:31:15;7.55;;;2.13;;
28519;SDS011;15732;48.534;20.382;2023-03-14T09:33:42;5.82;;;2.60;;
28519;SDS011;15732;48.534;20.382;2023-03-14T09:36:10;3.30;;;2.00;;
28519;SDS011;15732;48.534;20.382;2023-03-14T09:38:38;4.22;;;1.63;;
28519;SDS011;15732;48.534;20.382;2023-03-14T09:41:24;5.70;;;2.30;;
28519;SDS011;15732;48.534;20.382;2023-03-14T09:46:48;5.00;;;1.98;;
28519;SDS011;15732;48.534;20.382;2023-03-14T09:51:46;4.78;;;2.30;;
28519;SDS011;15732;48.534;20.382;2023-03-14T09:54:24;5.18;;;2.28;;
28519;SDS011;15732;48.534;20.382;2023-03-14T09:57:06;3.70;;;1.73;;
28519;SDS011;15732;48.534;20.382;2023-03-14T09:59:45;4.93;;;1.70;;
28519;SDS011;15732;48.534;20.382;2023-03-14T10:02:40;4.28;;;1.60;;
28519;SDS011;15732;48.534;20.382;2023-03-14T10:05:15;4.53;;;1.88;;
28519;SDS011;15732;48.534;20.382;2023-03-14T10:07:44;5.88;;;2.10;;
28519;SDS011;15732;48.534;20.382;2023-03-14T10:10:17;5.25;;;2.63;;
28519;SDS011;15732;48.534;20.382;2023-03-14T10:13:15;3.80;;;1.95;;
28519;SDS011;15732;48.534;20.382;2023-03-14T10:15:52;4.65;;;2.00;;
28519;SDS011;15732;48.534;20.382;2023-03-14T10:18:31;2.75;;;1.65;;
28519;SDS011;15732;48.534;20.382;2023-03-14T10:23:42;4.50;;;1.88;;
28519;SDS011;15732;48.534;20.382;2023-03-14T10:26:14;4.78;;;2.33;;
28519;SDS011;15732;48.534;20.382;2023-03-14T10:28:46;7.15;;;2.03;;
28519;SDS011;15732;48.534;20.382;2023-03-14T10:31:17;4.22;;;2.40;;
28519;SDS011;15732;48.534;20.382;2023-03-14T10:33:57;6.82;;;3.30;;
28519;SDS011;15732;48.534;20.382;2023-03-14T10:36:28;6.90;;;2.95;;
28519;SDS011;15732;48.534;20.382;2023-03-14T10:38:58;6.55;;;2.22;;
28519;SDS011;15732;48.534;20.382;2023-03-14T10:41:48;25.55;;;2.65;;
28519;SDS011;15732;48.534;20.382;2023-03-14T10:44:20;5.57;;;2.95;;
28519;SDS011;15732;48.534;20.382;2023-03-14T10:46:55;4.38;;;2.30;;
28519;SDS011;15732;48.534;20.382;2023-03-14T10:49:30;5.70;;;2.90;;
28519;SDS011;15732;48.534;20.382;2023-03-14T10:52:12;8.48;;;2.10;;
28519;SDS011;15732;48.534;20.382;2023-03-14T10:54:48;4.95;;;2.60;;
28519;SDS011;15732;48.534;20.382;2023-03-14T10:57:20;6.82;;;2.50;;
28519;SDS011;15732;48.534;20.382;2023-03-14T10:59:47;7.22;;;2.28;;
28519;SDS011;15732;48.534;20.382;2023-03-14T11:02:31;6.53;;;2.88;;
28519;SDS011;15732;48.534;20.382;2023-03-14T11:05:29;5.00;;;2.95;;
28519;SDS011;15732;48.534;20.382;2023-03-14T11:08:20;5.55;;;2.58;;
28519;SDS011;15732;48.534;20.382;2023-03-14T11:11:07;5.97;;;2.40;;
28519;SDS011;15732;48.534;20.382;2023-03-14T11:13:47;5.53;;;2.30;;
28519;SDS011;15732;48.534;20.382;2023-03-14T11:25:11;5.78;;;2.13;;
28519;SDS011;15732;48.534;20.382;2023-03-14T11:30:52;5.85;;;2.92;;
28519;SDS011;15732;48.534;20.382;2023-03-14T11:36:11;4.75;;;2.05;;
28519;SDS011;15732;48.534;20.382;2023-03-14T11:39:11;3.22;;;1.48;;
28519;SDS011;15732;48.534;20.382;2023-03-14T11:41:42;4.63;;;1.75;;
28519;SDS011;15732;48.534;20.382;2023-03-14T11:46:48;3.57;;;1.53;;
28519;SDS011;15732;48.534;20.382;2023-03-14T11:49:51;4.10;;;1.73;;
28519;SDS011;15732;48.534;20.382;2023-03-14T11:52:32;3.50;;;1.55;;
28519;SDS011;15732;48.534;20.382;2023-03-14T11:57:39;3.42;;;1.70;;
28519;SDS011;15732;48.534;20.382;2023-03-14T12:00:19;7.43;;;1.43;;
28519;SDS011;15732;48.534;20.382;2023-03-14T12:10:37;6.57;;;2.33;;
28519;SDS011;15732;48.534;20.382;2023-03-14T12:13:18;4.57;;;2.22;;
28519;SDS011;15732;48.534;20.382;2023-03-14T12:15:56;4.13;;;1.63;;
28519;SDS011;15732;48.534;20.382;2023-03-14T12:18:35;4.57;;;1.58;;
28519;SDS011;15732;48.534;20.382;2023-03-14T12:21:08;4.57;;;1.55;;
28519;SDS011;15732;48.534;20.382;2023-03-14T12:23:51;8.02;;;2.75;;
28519;SDS011;15732;48.534;20.382;2023-03-14T12:26:27;8.27;;;2.28;;
28519;SDS011;15732;48.534;20.382;2023-03-14T12:29:11;4.15;;;1.77;;
28519;SDS011;15732;48.534;20.382;2023-03-14T12:31:43;5.18;;;2.35;;
28519;SDS011;15732;48.534;20.382;2023-03-14T12:39:21;5.70;;;2.38;;
28519;SDS011;15732;48.534;20.382;2023-03-14T12:42:13;4.65;;;1.50;;
28519;SDS011;15732;48.534;20.382;2023-03-14T12:47:52;3.60;;;1.90;;
28519;SDS011;15732;48.534;20.382;2023-03-14T12:50:25;4.60;;;2.20;;
28519;SDS011;15732;48.534;20.382;2023-03-14T12:55:36;5.68;;;1.52;;
28519;SDS011;15732;48.534;20.382;2023-03-14T13:01:10;6.90;;;2.10;;
28519;SDS011;15732;48.534;20.382;2023-03-14T13:04:03;5.97;;;1.52;;
28519;SDS011;15732;48.534;20.382;2023-03-14T13:06:56;2.65;;;1.30;;
28519;SDS011;15732;48.534;20.382;2023-03-14T13:12:27;5.53;;;2.05;;
28519;SDS011;15732;48.534;20.382;2023-03-14T13:15:01;6.00;;;1.95;;
28519;SDS011;15732;48.534;20.382;2023-03-14T13:17:40;9.23;;;2.13;;
28519;SDS011;15732;48.534;20.382;2023-03-14T13:20:12;3.45;;;1.92;;
28519;SDS011;15732;48.534;20.382;2023-03-14T13:22:57;4.63;;;2.13;;
28519;SDS011;15732;48.534;20.382;2023-03-14T13:25:24;4.30;;;2.35;;
28519;SDS011;15732;48.534;20.382;2023-03-14T13:27:58;21.17;;;1.67;;
28519;SDS011;15732;48.534;20.382;2023-03-14T13:30:26;3.95;;;1.80;;
28519;SDS011;15732;48.534;20.382;2023-03-14T13:32:55;5.53;;;1.98;;
28519;SDS011;15732;48.534;20.382;2023-03-14T13:35:24;3.05;;;1.67;;
28519;SDS011;15732;48.534;20.382;2023-03-14T13:38:03;10.43;;;2.53;;
28519;SDS011;15732;48.534;20.382;2023-03-14T13:40:31;3.88;;;2.00;;
28519;SDS011;15732;48.534;20.382;2023-03-14T13:43:11;3.17;;;1.77;;
28519;SDS011;15732;48.534;20.382;2023-03-14T13:48:15;3.47;;;1.75;;
28519;SDS011;15732;48.534;20.382;2023-03-14T13:50:48;4.40;;;2.22;;
28519;SDS011;15732;48.534;20.382;2023-03-14T13:53:17;5.28;;;2.33;;
28519;SDS011;15732;48.534;20.382;2023-03-14T13:55:45;8.50;;;2.05;;
28519;SDS011;15732;48.534;20.382;2023-03-14T13:58:22;5.25;;;1.60;;
28519;SDS011;15732;48.534;20.382;2023-03-14T14:00:54;5.30;;;2.22;;
28519;SDS011;15732;48.534;20.382;2023-03-14T14:03:24;2.97;;;1.15;;
28519;SDS011;15732;48.534;20.382;2023-03-14T14:05:52;10.38;;;2.38;;
28519;SDS011;15732;48.534;20.382;2023-03-14T14:08:23;8.38;;;2.03;;
28519;SDS011;15732;48.534;20.382;2023-03-14T14:10:58;4.88;;;2.35;;
28519;SDS011;15732;48.534;20.382;2023-03-14T14:13:29;3.17;;;1.67;;
28519;SDS011;15732;48.534;20.382;2023-03-14T14:15:59;8.40;;;2.13;;
28519;SDS011;15732;48.534;20.382;2023-03-14T14:18:29;5.53;;;1.67;;
28519;SDS011;15732;48.534;20.382;2023-03-14T14:20:59;8.02;;;2.55;;
28519;SDS011;15732;48.534;20.382;2023-03-14T14:23:27;6.18;;;2.58;;
28519;SDS011;15732;48.534;20.382;2023-03-14T14:25:57;12.15;;;3.38;;
28519;SDS011;15732;48.534;20.382;2023-03-14T14:33:42;9.52;;;2.92;;
28519;SDS011;15732;48.534;20.382;2023-03-14T14:36:41;7.38;;;2.58;;
28519;SDS011;15732;48.534;20.382;2023-03-14T14:39:23;7.55;;;3.08;;
28519;SDS011;15732;48.534;20.382;2023-03-14T14:41:52;11.73;;;2.58;;
28519;SDS011;15732;48.534;20.382;2023-03-14T14:44:29;5.97;;;3.33;;
28519;SDS011;15732;48.534;20.382;2023-03-14T14:46:59;11.43;;;3.30;;
28519;SDS011;15732;48.534;20.382;2023-03-14T14:49:30;6.95;;;2.28;;
28519;SDS011;15732;48.534;20.382;2023-03-14T14:54:44;6.00;;;2.78;;
28519;SDS011;15732;48.534;20.382;2023-03-14T14:57:25;6.45;;;2.63;;
28519;SDS011;15732;48.534;20.382;2023-03-14T15:00:25;25.35;;;3.40;;
28519;SDS011;15732;48.534;20.382;2023-03-14T15:02:52;13.25;;;2.80;;
28519;SDS011;15732;48.534;20.382;2023-03-14T15:05:24;6.60;;;2.22;;
28519;SDS011;15732;48.534;20.382;2023-03-14T15:07:52;5.47;;;1.92;;
28519;SDS011;15732;48.534;20.382;2023-03-14T15:10:20;5.85;;;2.58;;
28519;SDS011;15732;48.534;20.382;2023-03-14T15:12:49;5.80;;;2.40;;
28519;SDS011;15732;48.534;20.382;2023-03-14T15:15:16;6.85;;;2.90;;
28519;SDS011;15732;48.534;20.382;2023-03-14T15:17:48;11.10;;;4.25;;
28519;SDS011;15732;48.534;20.382;2023-03-14T15:20:19;12.63;;;5.38;;
28519;SDS011;15732;48.534;20.382;2023-03-14T15:22:49;22.80;;;9.98;;
28519;SDS011;15732;48.534;20.382;2023-03-14T15:25:16;29.60;;;9.32;;
28519;SDS011;15732;48.534;20.382;2023-03-14T15:27:44;29.02;;;12.98;;
28519;SDS011;15732;48.534;20.382;2023-03-14T15:30:15;29.00;;;11.88;;
28519;SDS011;15732;48.534;20.382;2023-03-14T15:32:58;69.30;;;28.48;;
28519;SDS011;15732;48.534;20.382;2023-03-14T15:35:26;67.32;;;27.13;;
28519;SDS011;15732;48.534;20.382;2023-03-14T15:37:53;12.20;;;6.05;;
28519;SDS011;15732;48.534;20.382;2023-03-14T15:40:20;20.75;;;4.30;;
28519;SDS011;15732;48.534;20.382;2023-03-14T15:42:49;6.85;;;3.90;;
28519;SDS011;15732;48.534;20.382;2023-03-14T15:45:17;10.93;;;4.55;;
28519;SDS011;15732;48.534;20.382;2023-03-14T15:47:44;10.90;;;4.20;;
28519;SDS011;15732;48.534;20.382;2023-03-14T15:50:12;9.07;;;4.00;;
28519;SDS011;15732;48.534;20.382;2023-03-14T15:52:39;12.02;;;4.50;;
28519;SDS011;15732;48.534;20.382;2023-03-14T15:55:07;6.82;;;3.80;;
28519;SDS011;15732;48.534;20.382;2023-03-14T16:00:03;36.85;;;12.80;;
28519;SDS011;15732;48.534;20.382;2023-03-14T16:02:34;25.17;;;10.30;;
28519;SDS011;15732;48.534;20.382;2023-03-14T16:05:06;19.67;;;9.00;;
28519;SDS011;15732;48.534;20.382;2023-03-14T16:07:35;21.73;;;9.45;;
28519;SDS011;15732;48.534;20.382;2023-03-14T16:10:03;26.20;;;10.20;;
28519;SDS011;15732;48.534;20.382;2023-03-14T16:12:31;17.23;;;7.97;;
28519;SDS011;15732;48.534;20.382;2023-03-14T16:14:59;21.60;;;8.07;;
28519;SDS011;15732;48.534;20.382;2023-03-14T16:17:26;21.15;;;9.05;;